sensor_id;sensor_type;location;lat;lon;timestamp;P1;durP1;ratioP1;P2;durP2;ratioP2
20084;SDS011;10202;48.474;9.138;2024-03-25T00:00:20;1.87;;;1.23;;
20084;SDS011;10202;48.474;9.138;2024-03-25T00:02:50;4.50;;;1.50;;
20084;SDS011;10202;48.474;9.138;2024-03-25T00:05:18;3.43;;;1.67;;
20084;SDS011;10202;48.474;9.138;2024-03-25T00:07:54;2.83;;;1.50;;
20084;SDS011;10202;48.474;9.138;2024-03-25T00:10:21;4.00;;;1.63;;
20084;SDS011;10202;48.474;9.138;2024-03-25T00:12:50;2.93;;;1.40;;
20084;SDS011;10202;48.474;9.138;2024-03-25T00:15:19;1.53;;;1.43;;
20084;SDS011;10202;48.474;9.138;2024-03-25T00:17:51;2.90;;;1.60;;
20084;SDS011;10202;48.474;9.138;2024-03-25T00:20:17;3.73;;;1.50;;
20084;SDS011;10202;48.474;9.138;2024-03-25T00:22:44;3.53;;;1.50;;
20084;SDS011;10202;48.474;9.138;2024-03-25T00:25:15;2.20;;;1.63;;
20084;SDS011;10202;48.474;9.138;2024-03-25T00:27:42;2.23;;;1.37;;
20084;SDS011;10202;48.474;9.138;2024-03-25T00:30:08;4.00;;;1.77;;
20084;SDS011;10202;48.474;9.138;2024-03-25T00:32:37;2.80;;;1.50;;
20084;SDS011;10202;48.474;9.138;2024-03-25T00:35:05;5.33;;;1.60;;
20084;SDS011;10202;48.474;9.138;2024-03-25T00:37:33;3.97;;;1.70;;
20084;SDS011;10202;48.474;9.138;2024-03-25T00:40:01;2.33;;;1.40;;
20084;SDS011;10202;48.474;9.138;2024-03-25T00:42:29;5.10;;;1.80;;
20084;SDS011;10202;48.474;9.138;2024-03-25T00:44:54;2.70;;;1.50;;
20084;SDS011;10202;48.474;9.138;2024-03-25T00:47:22;2.40;;;1.37;;
20084;SDS011;10202;48.474;9.138;2024-03-25T00:49:48;1.63;;;1.40;;
20084;SDS011;10202;48.474;9.138;2024-03-25T00:52:16;5.43;;;1.60;;
20084;SDS011;10202;48.474;9.138;2024-03-25T00:54:41;4.73;;;1.53;;
20084;SDS011;10202;48.474;9.138;2024-03-25T00:57:07;2.50;;;1.77;;
20084;SDS011;10202;48.474;9.138;2024-03-25T00:59:37;4.43;;;1.83;;
20084;SDS011;10202;48.474;9.138;2024-03-25T01:02:05;3.07;;;1.43;;
20084;SDS011;10202;48.474;9.138;2024-03-25T01:04:35;2.43;;;1.70;;
20084;SDS011;10202;48.474;9.138;2024-03-25T01:07:01;5.50;;;1.83;;
20084;SDS011;10202;48.474;9.138;2024-03-25T01:09:32;2.53;;;1.83;;
20084;SDS011;10202;48.474;9.138;2024-03-25T01:12:02;2.27;;;1.57;;
20084;SDS011;10202;48.474;9.138;2024-03-25T01:14:38;2.47;;;1.70;;
20084;SDS011;10202;48.474;9.138;2024-03-25T01:17:05;3.07;;;1.93;;
20084;SDS011;10202;48.474;9.138;2024-03-25T01:19:33;1.50;;;1.40;;
20084;SDS011;10202;48.474;9.138;2024-03-25T01:22:01;4.27;;;1.70;;
20084;SDS011;10202;48.474;9.138;2024-03-25T01:24:32;2.60;;;1.90;;
20084;SDS011;10202;48.474;9.138;2024-03-25T01:27:00;4.27;;;1.60;;
20084;SDS011;10202;48.474;9.138;2024-03-25T01:29:26;2.00;;;1.53;;
20084;SDS011;10202;48.474;9.138;2024-03-25T01:31:54;1.93;;;1.60;;
20084;SDS011;10202;48.474;9.138;2024-03-25T01:34:23;4.00;;;1.95;;
20084;SDS011;10202;48.474;9.138;2024-03-25T01:36:54;3.53;;;1.57;;
20084;SDS011;10202;48.474;9.138;2024-03-25T01:39:22;3.40;;;1.50;;
20084;SDS011;10202;48.474;9.138;2024-03-25T01:41:49;4.87;;;1.50;;
20084;SDS011;10202;48.474;9.138;2024-03-25T01:44:18;3.33;;;1.93;;
20084;SDS011;10202;48.474;9.138;2024-03-25T01:46:46;3.10;;;1.53;;
20084;SDS011;10202;48.474;9.138;2024-03-25T01:49:17;1.77;;;1.50;;
20084;SDS011;10202;48.474;9.138;2024-03-25T01:51:47;4.13;;;1.70;;
20084;SDS011;10202;48.474;9.138;2024-03-25T01:54:18;3.03;;;1.70;;
20084;SDS011;10202;48.474;9.138;2024-03-25T01:56:44;2.97;;;1.50;;
20084;SDS011;10202;48.474;9.138;2024-03-25T01:59:14;3.67;;;1.70;;
20084;SDS011;10202;48.474;9.138;2024-03-25T02:01:45;3.20;;;1.60;;
20084;SDS011;10202;48.474;9.138;2024-03-25T02:04:18;2.53;;;1.57;;
20084;SDS011;10202;48.474;9.138;2024-03-25T02:06:46;4.43;;;1.70;;
20084;SDS011;10202;48.474;9.138;2024-03-25T02:09:12;4.50;;;1.77;;
20084;SDS011;10202;48.474;9.138;2024-03-25T02:11:40;3.27;;;1.63;;
20084;SDS011;10202;48.474;9.138;2024-03-25T02:14:08;3.30;;;1.70;;
20084;SDS011;10202;48.474;9.138;2024-03-25T02:16:34;3.23;;;1.50;;
20084;SDS011;10202;48.474;9.138;2024-03-25T02:18:59;3.70;;;1.80;;
20084;SDS011;10202;48.474;9.138;2024-03-25T02:21:25;2.03;;;1.60;;
20084;SDS011;10202;48.474;9.138;2024-03-25T02:23:53;3.73;;;1.70;;
20084;SDS011;10202;48.474;9.138;2024-03-25T02:26:25;5.17;;;1.93;;
20084;SDS011;10202;48.474;9.138;2024-03-25T02:28:52;1.93;;;1.50;;
20084;SDS011;10202;48.474;9.138;2024-03-25T02:31:18;3.37;;;1.77;;
20084;SDS011;10202;48.474;9.138;2024-03-25T02:33:44;6.47;;;1.93;;
20084;SDS011;10202;48.474;9.138;2024-03-25T02:36:14;4.67;;;1.50;;
20084;SDS011;10202;48.474;9.138;2024-03-25T02:38:40;2.53;;;1.50;;
20084;SDS011;10202;48.474;9.138;2024-03-25T02:41:07;2.67;;;1.50;;
20084;SDS011;10202;48.474;9.138;2024-03-25T02:43:38;1.87;;;1.30;;
20084;SDS011;10202;48.474;9.138;2024-03-25T02:46:03;2.67;;;1.63;;
20084;SDS011;10202;48.474;9.138;2024-03-25T02:48:29;3.10;;;1.70;;
20084;SDS011;10202;48.474;9.138;2024-03-25T02:50:57;2.13;;;1.50;;
20084;SDS011;10202;48.474;9.138;2024-03-25T02:53:22;1.50;;;1.40;;
20084;SDS011;10202;48.474;9.138;2024-03-25T02:55:50;4.13;;;1.63;;
20084;SDS011;10202;48.474;9.138;2024-03-25T02:58:18;3.65;;;1.65;;
20084;SDS011;10202;48.474;9.138;2024-03-25T03:00:45;1.93;;;1.40;;
20084;SDS011;10202;48.474;9.138;2024-03-25T03:03:11;2.70;;;1.60;;
20084;SDS011;10202;48.474;9.138;2024-03-25T03:05:36;2.13;;;1.53;;
20084;SDS011;10202;48.474;9.138;2024-03-25T03:08:05;6.60;;;1.70;;
20084;SDS011;10202;48.474;9.138;2024-03-25T03:10:31;4.97;;;1.70;;
20084;SDS011;10202;48.474;9.138;2024-03-25T03:12:56;3.27;;;1.80;;
20084;SDS011;10202;48.474;9.138;2024-03-25T03:15:25;3.03;;;1.90;;
20084;SDS011;10202;48.474;9.138;2024-03-25T03:17:51;2.47;;;1.60;;
20084;SDS011;10202;48.474;9.138;2024-03-25T03:20:19;3.00;;;1.90;;
20084;SDS011;10202;48.474;9.138;2024-03-25T03:22:44;2.20;;;1.63;;
20084;SDS011;10202;48.474;9.138;2024-03-25T03:25:13;4.03;;;2.03;;
20084;SDS011;10202;48.474;9.138;2024-03-25T03:27:41;3.30;;;1.90;;
20084;SDS011;10202;48.474;9.138;2024-03-25T03:30:14;9.40;;;4.33;;
20084;SDS011;10202;48.474;9.138;2024-03-25T03:32:40;9.83;;;4.67;;
20084;SDS011;10202;48.474;9.138;2024-03-25T03:35:07;9.40;;;5.07;;
20084;SDS011;10202;48.474;9.138;2024-03-25T03:37:35;14.50;;;6.87;;
20084;SDS011;10202;48.474;9.138;2024-03-25T03:40:03;14.37;;;7.10;;
20084;SDS011;10202;48.474;9.138;2024-03-25T03:42:32;20.37;;;7.70;;
20084;SDS011;10202;48.474;9.138;2024-03-25T03:45:00;19.40;;;8.13;;
20084;SDS011;10202;48.474;9.138;2024-03-25T03:47:28;21.57;;;8.97;;
20084;SDS011;10202;48.474;9.138;2024-03-25T03:49:54;23.23;;;10.00;;
20084;SDS011;10202;48.474;9.138;2024-03-25T03:52:22;20.57;;;10.17;;
20084;SDS011;10202;48.474;9.138;2024-03-25T03:54:48;16.98;;;8.68;;
20084;SDS011;10202;48.474;9.138;2024-03-25T03:57:13;20.03;;;9.50;;
20084;SDS011;10202;48.474;9.138;2024-03-25T03:59:41;18.43;;;8.57;;
20084;SDS011;10202;48.474;9.138;2024-03-25T04:02:11;23.07;;;8.70;;
20084;SDS011;10202;48.474;9.138;2024-03-25T04:04:37;17.60;;;8.20;;
20084;SDS011;10202;48.474;9.138;2024-03-25T04:07:05;14.23;;;7.20;;
20084;SDS011;10202;48.474;9.138;2024-03-25T04:09:33;13.83;;;6.80;;
20084;SDS011;10202;48.474;9.138;2024-03-25T04:12:01;12.60;;;6.10;;
20084;SDS011;10202;48.474;9.138;2024-03-25T04:14:26;9.23;;;5.20;;
20084;SDS011;10202;48.474;9.138;2024-03-25T04:16:52;9.40;;;4.37;;
20084;SDS011;10202;48.474;9.138;2024-03-25T04:19:24;11.27;;;4.60;;
20084;SDS011;10202;48.474;9.138;2024-03-25T04:21:52;8.33;;;3.97;;
20084;SDS011;10202;48.474;9.138;2024-03-25T04:24:18;8.40;;;3.47;;
20084;SDS011;10202;48.474;9.138;2024-03-25T04:26:47;6.97;;;2.83;;
20084;SDS011;10202;48.474;9.138;2024-03-25T04:29:12;6.83;;;2.63;;
20084;SDS011;10202;48.474;9.138;2024-03-25T04:31:44;4.07;;;2.33;;
20084;SDS011;10202;48.474;9.138;2024-03-25T04:34:12;5.73;;;2.63;;
20084;SDS011;10202;48.474;9.138;2024-03-25T04:36:37;6.03;;;2.35;;
20084;SDS011;10202;48.474;9.138;2024-03-25T04:39:05;3.47;;;2.30;;
20084;SDS011;10202;48.474;9.138;2024-03-25T04:41:33;4.73;;;2.00;;
20084;SDS011;10202;48.474;9.138;2024-03-25T04:44:04;5.67;;;2.70;;
20084;SDS011;10202;48.474;9.138;2024-03-25T04:46:32;5.20;;;2.20;;
20084;SDS011;10202;48.474;9.138;2024-03-25T04:48:59;5.80;;;2.00;;
20084;SDS011;10202;48.474;9.138;2024-03-25T04:51:25;3.70;;;2.30;;
20084;SDS011;10202;48.474;9.138;2024-03-25T04:53:51;4.07;;;2.33;;
20084;SDS011;10202;48.474;9.138;2024-03-25T04:56:20;7.53;;;2.47;;
20084;SDS011;10202;48.474;9.138;2024-03-25T04:58:46;5.73;;;2.33;;
20084;SDS011;10202;48.474;9.138;2024-03-25T05:01:14;3.17;;;2.23;;
20084;SDS011;10202;48.474;9.138;2024-03-25T05:03:47;6.50;;;2.57;;
20084;SDS011;10202;48.474;9.138;2024-03-25T05:06:18;8.07;;;2.83;;
20084;SDS011;10202;48.474;9.138;2024-03-25T05:08:53;4.73;;;2.77;;
20084;SDS011;10202;48.474;9.138;2024-03-25T05:11:18;5.47;;;2.70;;
20084;SDS011;10202;48.474;9.138;2024-03-25T05:13:44;4.50;;;2.50;;
20084;SDS011;10202;48.474;9.138;2024-03-25T05:16:10;4.87;;;2.47;;
20084;SDS011;10202;48.474;9.138;2024-03-25T05:18:40;8.00;;;3.10;;
20084;SDS011;10202;48.474;9.138;2024-03-25T05:21:07;5.20;;;2.10;;
20084;SDS011;10202;48.474;9.138;2024-03-25T05:23:33;3.73;;;2.40;;
20084;SDS011;10202;48.474;9.138;2024-03-25T05:25:59;6.73;;;2.47;;
20084;SDS011;10202;48.474;9.138;2024-03-25T05:28:25;6.53;;;2.40;;
20084;SDS011;10202;48.474;9.138;2024-03-25T05:30:55;5.17;;;1.93;;
20084;SDS011;10202;48.474;9.138;2024-03-25T05:33:33;4.97;;;2.53;;
20084;SDS011;10202;48.474;9.138;2024-03-25T05:35:59;4.67;;;2.60;;
20084;SDS011;10202;48.474;9.138;2024-03-25T05:38:28;6.70;;;2.40;;
20084;SDS011;10202;48.474;9.138;2024-03-25T05:40:53;6.27;;;3.33;;
20084;SDS011;10202;48.474;9.138;2024-03-25T05:43:22;4.90;;;3.20;;
20084;SDS011;10202;48.474;9.138;2024-03-25T05:45:51;7.53;;;3.57;;
20084;SDS011;10202;48.474;9.138;2024-03-25T05:48:22;7.70;;;4.27;;
20084;SDS011;10202;48.474;9.138;2024-03-25T05:51:02;8.03;;;4.70;;
20084;SDS011;10202;48.474;9.138;2024-03-25T05:53:35;12.87;;;5.67;;
20084;SDS011;10202;48.474;9.138;2024-03-25T05:56:03;10.77;;;5.70;;
20084;SDS011;10202;48.474;9.138;2024-03-25T05:58:33;9.50;;;5.40;;
20084;SDS011;10202;48.474;9.138;2024-03-25T06:01:04;8.47;;;5.00;;
20084;SDS011;10202;48.474;9.138;2024-03-25T06:03:32;9.43;;;4.80;;
20084;SDS011;10202;48.474;9.138;2024-03-25T06:06:05;8.83;;;4.53;;
20084;SDS011;10202;48.474;9.138;2024-03-25T06:08:33;9.63;;;4.93;;
20084;SDS011;10202;48.474;9.138;2024-03-25T06:11:01;10.43;;;5.00;;
20084;SDS011;10202;48.474;9.138;2024-03-25T06:13:27;11.10;;;5.17;;
20084;SDS011;10202;48.474;9.138;2024-03-25T06:15:58;8.40;;;4.43;;
20084;SDS011;10202;48.474;9.138;2024-03-25T06:18:26;9.43;;;4.20;;
20084;SDS011;10202;48.474;9.138;2024-03-25T06:20:54;8.23;;;4.13;;
20084;SDS011;10202;48.474;9.138;2024-03-25T06:25:54;9.13;;;4.47;;
20084;SDS011;10202;48.474;9.138;2024-03-25T06:28:20;11.37;;;3.80;;
20084;SDS011;10202;48.474;9.138;2024-03-25T06:30:49;7.27;;;3.97;;
20084;SDS011;10202;48.474;9.138;2024-03-25T06:33:34;6.43;;;3.15;;
20084;SDS011;10202;48.474;9.138;2024-03-25T06:36:19;6.38;;;3.42;;
20084;SDS011;10202;48.474;9.138;2024-03-25T06:38:44;5.63;;;3.47;;
20084;SDS011;10202;48.474;9.138;2024-03-25T06:41:12;6.68;;;3.33;;
20084;SDS011;10202;48.474;9.138;2024-03-25T06:43:41;6.45;;;3.25;;
20084;SDS011;10202;48.474;9.138;2024-03-25T06:46:07;5.88;;;3.22;;
20084;SDS011;10202;48.474;9.138;2024-03-25T06:48:33;5.72;;;2.58;;
20084;SDS011;10202;48.474;9.138;2024-03-25T06:51:04;3.90;;;2.63;;
20084;SDS011;10202;48.474;9.138;2024-03-25T06:53:32;8.27;;;3.03;;
20084;SDS011;10202;48.474;9.138;2024-03-25T06:55:58;6.70;;;3.10;;
20084;SDS011;10202;48.474;9.138;2024-03-25T06:58:27;5.85;;;2.90;;
20084;SDS011;10202;48.474;9.138;2024-03-25T07:00:56;3.72;;;2.60;;
20084;SDS011;10202;48.474;9.138;2024-03-25T07:03:22;6.10;;;3.17;;
20084;SDS011;10202;48.474;9.138;2024-03-25T07:05:49;5.75;;;3.03;;
20084;SDS011;10202;48.474;9.138;2024-03-25T07:08:21;4.18;;;2.83;;
20084;SDS011;10202;48.474;9.138;2024-03-25T07:10:47;7.65;;;3.70;;
20084;SDS011;10202;48.474;9.138;2024-03-25T07:13:12;7.63;;;3.42;;
20084;SDS011;10202;48.474;9.138;2024-03-25T07:15:38;5.32;;;3.10;;
20084;SDS011;10202;48.474;9.138;2024-03-25T07:18:07;6.63;;;2.95;;
20084;SDS011;10202;48.474;9.138;2024-03-25T07:20:32;4.90;;;2.97;;
20084;SDS011;10202;48.474;9.138;2024-03-25T07:23:05;8.93;;;3.53;;
20084;SDS011;10202;48.474;9.138;2024-03-25T07:25:31;4.68;;;2.70;;
20084;SDS011;10202;48.474;9.138;2024-03-25T07:27:57;7.10;;;3.17;;
20084;SDS011;10202;48.474;9.138;2024-03-25T07:30:22;6.68;;;2.50;;
20084;SDS011;10202;48.474;9.138;2024-03-25T07:32:55;9.02;;;2.72;;
20084;SDS011;10202;48.474;9.138;2024-03-25T07:35:23;4.38;;;2.67;;
20084;SDS011;10202;48.474;9.138;2024-03-25T07:37:51;4.28;;;2.65;;
20084;SDS011;10202;48.474;9.138;2024-03-25T07:40:19;6.18;;;2.65;;
20084;SDS011;10202;48.474;9.138;2024-03-25T07:42:48;4.63;;;2.65;;
20084;SDS011;10202;48.474;9.138;2024-03-25T07:45:14;4.55;;;2.40;;
20084;SDS011;10202;48.474;9.138;2024-03-25T07:47:42;8.23;;;3.10;;
20084;SDS011;10202;48.474;9.138;2024-03-25T07:50:12;6.15;;;2.80;;
20084;SDS011;10202;48.474;9.138;2024-03-25T07:52:40;8.90;;;2.63;;
20084;SDS011;10202;48.474;9.138;2024-03-25T07:55:09;4.68;;;2.65;;
20084;SDS011;10202;48.474;9.138;2024-03-25T07:57:38;5.78;;;2.25;;
20084;SDS011;10202;48.474;9.138;2024-03-25T08:00:03;4.28;;;2.10;;
20084;SDS011;10202;48.474;9.138;2024-03-25T08:02:40;8.05;;;2.28;;
20084;SDS011;10202;48.474;9.138;2024-03-25T08:05:08;2.92;;;1.90;;
20084;SDS011;10202;48.474;9.138;2024-03-25T08:07:36;3.63;;;1.80;;
20084;SDS011;10202;48.474;9.138;2024-03-25T08:10:04;6.78;;;1.85;;
20084;SDS011;10202;48.474;9.138;2024-03-25T08:12:30;5.90;;;1.73;;
20084;SDS011;10202;48.474;9.138;2024-03-25T08:14:56;3.75;;;1.90;;
20084;SDS011;10202;48.474;9.138;2024-03-25T08:17:24;3.35;;;1.95;;
20084;SDS011;10202;48.474;9.138;2024-03-25T08:19:52;2.38;;;1.60;;
20084;SDS011;10202;48.474;9.138;2024-03-25T08:22:22;3.53;;;2.00;;
20084;SDS011;10202;48.474;9.138;2024-03-25T08:24:52;7.75;;;2.92;;
20084;SDS011;10202;48.474;9.138;2024-03-25T08:27:20;8.98;;;2.20;;
20084;SDS011;10202;48.474;9.138;2024-03-25T08:29:46;3.42;;;1.70;;
20084;SDS011;10202;48.474;9.138;2024-03-25T08:32:14;3.33;;;1.58;;
20084;SDS011;10202;48.474;9.138;2024-03-25T08:34:44;4.47;;;2.35;;
20084;SDS011;10202;48.474;9.138;2024-03-25T08:37:10;3.78;;;1.85;;
20084;SDS011;10202;48.474;9.138;2024-03-25T08:39:36;7.50;;;2.20;;
20084;SDS011;10202;48.474;9.138;2024-03-25T08:42:01;5.32;;;1.95;;
20084;SDS011;10202;48.474;9.138;2024-03-25T08:44:31;3.88;;;1.90;;
20084;SDS011;10202;48.474;9.138;2024-03-25T08:47:01;5.30;;;2.00;;
20084;SDS011;10202;48.474;9.138;2024-03-25T08:49:27;5.30;;;1.75;;
20084;SDS011;10202;48.474;9.138;2024-03-25T08:51:55;3.70;;;1.98;;
20084;SDS011;10202;48.474;9.138;2024-03-25T08:54:20;2.65;;;1.88;;
20084;SDS011;10202;48.474;9.138;2024-03-25T08:56:48;4.78;;;2.13;;
20084;SDS011;10202;48.474;9.138;2024-03-25T08:59:14;5.47;;;1.90;;
20084;SDS011;10202;48.474;9.138;2024-03-25T09:01:42;2.28;;;1.63;;
20084;SDS011;10202;48.474;9.138;2024-03-25T09:04:09;2.30;;;1.83;;
20084;SDS011;10202;48.474;9.138;2024-03-25T09:06:37;3.88;;;1.88;;
20084;SDS011;10202;48.474;9.138;2024-03-25T09:09:05;4.65;;;2.08;;
20084;SDS011;10202;48.474;9.138;2024-03-25T09:11:49;4.85;;;1.90;;
20084;SDS011;10202;48.474;9.138;2024-03-25T09:14:15;4.20;;;2.03;;
20084;SDS011;10202;48.474;9.138;2024-03-25T09:16:47;5.00;;;1.90;;
20084;SDS011;10202;48.474;9.138;2024-03-25T09:19:13;6.82;;;2.17;;
20084;SDS011;10202;48.474;9.138;2024-03-25T09:21:41;4.43;;;1.52;;
20084;SDS011;10202;48.474;9.138;2024-03-25T09:24:07;3.42;;;1.73;;
20084;SDS011;10202;48.474;9.138;2024-03-25T09:26:35;5.00;;;1.90;;
20084;SDS011;10202;48.474;9.138;2024-03-25T09:29:03;2.85;;;1.80;;
20084;SDS011;10202;48.474;9.138;2024-03-25T09:31:31;3.75;;;2.10;;
20084;SDS011;10202;48.474;9.138;2024-03-25T09:33:57;3.55;;;2.00;;
20084;SDS011;10202;48.474;9.138;2024-03-25T09:36:24;7.22;;;1.88;;
20084;SDS011;10202;48.474;9.138;2024-03-25T09:38:53;6.90;;;1.85;;
20084;SDS011;10202;48.474;9.138;2024-03-25T09:41:21;3.65;;;1.98;;
20084;SDS011;10202;48.474;9.138;2024-03-25T09:43:48;4.07;;;2.20;;
20084;SDS011;10202;48.474;9.138;2024-03-25T09:46:20;2.88;;;1.95;;
20084;SDS011;10202;48.474;9.138;2024-03-25T09:48:49;3.25;;;1.95;;
20084;SDS011;10202;48.474;9.138;2024-03-25T09:51:21;5.07;;;1.60;;
20084;SDS011;10202;48.474;9.138;2024-03-25T09:53:47;6.20;;;2.10;;
20084;SDS011;10202;48.474;9.138;2024-03-25T09:56:20;4.63;;;2.20;;
20084;SDS011;10202;48.474;9.138;2024-03-25T09:58:53;6.35;;;2.28;;
20084;SDS011;10202;48.474;9.138;2024-03-25T10:01:24;7.20;;;2.15;;
20084;SDS011;10202;48.474;9.138;2024-03-25T10:03:52;2.97;;;1.60;;
20084;SDS011;10202;48.474;9.138;2024-03-25T10:06:20;3.10;;;1.77;;
20084;SDS011;10202;48.474;9.138;2024-03-25T10:08:46;2.47;;;1.83;;
20084;SDS011;10202;48.474;9.138;2024-03-25T10:11:15;2.70;;;1.40;;
20084;SDS011;10202;48.474;9.138;2024-03-25T10:13:45;4.20;;;1.92;;
20084;SDS011;10202;48.474;9.138;2024-03-25T10:16:13;4.50;;;1.83;;
20084;SDS011;10202;48.474;9.138;2024-03-25T10:18:39;3.67;;;1.88;;
20084;SDS011;10202;48.474;9.138;2024-03-25T10:21:09;3.28;;;1.85;;
20084;SDS011;10202;48.474;9.138;2024-03-25T10:23:35;5.75;;;1.95;;
20084;SDS011;10202;48.474;9.138;2024-03-25T10:26:08;5.47;;;1.90;;
20084;SDS011;10202;48.474;9.138;2024-03-25T10:28:58;2.95;;;1.70;;
20084;SDS011;10202;48.474;9.138;2024-03-25T10:31:31;4.43;;;1.77;;
20084;SDS011;10202;48.474;9.138;2024-03-25T10:33:57;4.95;;;2.00;;
20084;SDS011;10202;48.474;9.138;2024-03-25T10:36:28;5.13;;;1.75;;
20084;SDS011;10202;48.474;9.138;2024-03-25T10:38:56;4.20;;;1.70;;
20084;SDS011;10202;48.474;9.138;2024-03-25T10:41:27;3.05;;;1.52;;
20084;SDS011;10202;48.474;9.138;2024-03-25T10:43:58;3.90;;;1.75;;
20084;SDS011;10202;48.474;9.138;2024-03-25T10:46:32;2.08;;;1.80;;
20084;SDS011;10202;48.474;9.138;2024-03-25T10:49:14;3.90;;;1.80;;
20084;SDS011;10202;48.474;9.138;2024-03-25T10:51:44;3.05;;;1.95;;
20084;SDS011;10202;48.474;9.138;2024-03-25T10:54:12;2.88;;;1.75;;
20084;SDS011;10202;48.474;9.138;2024-03-25T10:56:40;4.15;;;1.85;;
20084;SDS011;10202;48.474;9.138;2024-03-25T10:59:10;3.05;;;1.60;;
20084;SDS011;10202;48.474;9.138;2024-03-25T11:01:40;4.15;;;1.77;;
20084;SDS011;10202;48.474;9.138;2024-03-25T11:04:10;2.10;;;1.60;;
20084;SDS011;10202;48.474;9.138;2024-03-25T11:06:38;4.53;;;2.05;;
20084;SDS011;10202;48.474;9.138;2024-03-25T11:09:11;2.55;;;2.35;;
20084;SDS011;10202;48.474;9.138;2024-03-25T11:11:51;4.93;;;2.25;;
20084;SDS011;10202;48.474;9.138;2024-03-25T11:14:20;4.10;;;1.75;;
20084;SDS011;10202;48.474;9.138;2024-03-25T11:16:57;5.13;;;1.92;;
20084;SDS011;10202;48.474;9.138;2024-03-25T11:19:29;4.68;;;2.22;;
20084;SDS011;10202;48.474;9.138;2024-03-25T11:22:06;3.85;;;1.55;;
20084;SDS011;10202;48.474;9.138;2024-03-25T11:24:43;4.63;;;2.00;;
20084;SDS011;10202;48.474;9.138;2024-03-25T11:27:11;5.50;;;1.83;;
20084;SDS011;10202;48.474;9.138;2024-03-25T11:29:40;5.45;;;1.95;;
20084;SDS011;10202;48.474;9.138;2024-03-25T11:32:06;2.67;;;1.90;;
20084;SDS011;10202;48.474;9.138;2024-03-25T11:34:39;2.65;;;1.95;;
20084;SDS011;10202;48.474;9.138;2024-03-25T11:37:15;5.70;;;2.00;;
20084;SDS011;10202;48.474;9.138;2024-03-25T11:39:41;3.58;;;2.03;;
20084;SDS011;10202;48.474;9.138;2024-03-25T11:42:07;2.70;;;1.90;;
20084;SDS011;10202;48.474;9.138;2024-03-25T11:44:37;4.75;;;2.10;;
20084;SDS011;10202;48.474;9.138;2024-03-25T11:47:09;3.00;;;1.70;;
20084;SDS011;10202;48.474;9.138;2024-03-25T11:49:38;3.25;;;2.10;;
20084;SDS011;10202;48.474;9.138;2024-03-25T11:52:11;5.45;;;2.10;;
20084;SDS011;10202;48.474;9.138;2024-03-25T11:54:38;2.90;;;1.95;;
20084;SDS011;10202;48.474;9.138;2024-03-25T11:57:06;2.63;;;1.75;;
20084;SDS011;10202;48.474;9.138;2024-03-25T11:59:32;5.55;;;2.08;;
20084;SDS011;10202;48.474;9.138;2024-03-25T12:02:00;4.22;;;1.90;;
20084;SDS011;10202;48.474;9.138;2024-03-25T12:04:30;2.63;;;1.55;;
20084;SDS011;10202;48.474;9.138;2024-03-25T12:06:59;3.58;;;1.45;;
20084;SDS011;10202;48.474;9.138;2024-03-25T12:09:27;3.72;;;1.48;;
20084;SDS011;10202;48.474;9.138;2024-03-25T12:12:13;6.30;;;1.58;;
20084;SDS011;10202;48.474;9.138;2024-03-25T12:14:40;2.83;;;1.38;;
20084;SDS011;10202;48.474;9.138;2024-03-25T12:17:08;2.53;;;1.55;;
20084;SDS011;10202;48.474;9.138;2024-03-25T12:19:36;3.28;;;1.50;;
20084;SDS011;10202;48.474;9.138;2024-03-25T12:22:02;4.50;;;1.20;;
20084;SDS011;10202;48.474;9.138;2024-03-25T12:24:32;1.85;;;1.20;;
20084;SDS011;10202;48.474;9.138;2024-03-25T12:26:58;2.30;;;1.33;;
20084;SDS011;10202;48.474;9.138;2024-03-25T12:29:24;3.65;;;1.42;;
20084;SDS011;10202;48.474;9.138;2024-03-25T12:31:55;1.95;;;1.30;;
20084;SDS011;10202;48.474;9.138;2024-03-25T12:34:21;2.15;;;1.50;;
20084;SDS011;10202;48.474;9.138;2024-03-25T12:36:48;2.08;;;1.40;;
20084;SDS011;10202;48.474;9.138;2024-03-25T12:39:18;2.22;;;1.38;;
20084;SDS011;10202;48.474;9.138;2024-03-25T12:41:44;1.50;;;1.38;;
20084;SDS011;10202;48.474;9.138;2024-03-25T12:44:12;2.03;;;1.25;;
20084;SDS011;10202;48.474;9.138;2024-03-25T12:46:41;3.10;;;1.48;;
20084;SDS011;10202;48.474;9.138;2024-03-25T12:49:09;2.97;;;1.50;;
20084;SDS011;10202;48.474;9.138;2024-03-25T12:51:36;1.25;;;1.10;;
20084;SDS011;10202;48.474;9.138;2024-03-25T12:54:02;2.08;;;1.17;;
20084;SDS011;10202;48.474;9.138;2024-03-25T12:56:31;4.47;;;1.38;;
20084;SDS011;10202;48.474;9.138;2024-03-25T12:58:56;2.58;;;1.05;;
20084;SDS011;10202;48.474;9.138;2024-03-25T13:01:24;2.45;;;0.90;;
20084;SDS011;10202;48.474;9.138;2024-03-25T13:03:50;3.20;;;1.52;;
20084;SDS011;10202;48.474;9.138;2024-03-25T13:06:15;1.73;;;1.15;;
20084;SDS011;10202;48.474;9.138;2024-03-25T13:08:41;3.35;;;1.30;;
20084;SDS011;10202;48.474;9.138;2024-03-25T13:11:08;1.77;;;1.05;;
20084;SDS011;10202;48.474;9.138;2024-03-25T13:13:34;1.98;;;0.90;;
20084;SDS011;10202;48.474;9.138;2024-03-25T13:16:00;4.97;;;0.85;;
20084;SDS011;10202;48.474;9.138;2024-03-25T13:18:25;1.50;;;1.02;;
20084;SDS011;10202;48.474;9.138;2024-03-25T13:20:53;1.02;;;0.90;;
20084;SDS011;10202;48.474;9.138;2024-03-25T13:23:26;1.38;;;0.90;;
20084;SDS011;10202;48.474;9.138;2024-03-25T13:25:51;1.63;;;1.10;;
20084;SDS011;10202;48.474;9.138;2024-03-25T13:28:17;0.70;;;0.70;;
20084;SDS011;10202;48.474;9.138;2024-03-25T13:30:45;1.58;;;0.82;;
20084;SDS011;10202;48.474;9.138;2024-03-25T13:33:10;1.73;;;0.90;;
20084;SDS011;10202;48.474;9.138;2024-03-25T13:35:36;1.73;;;1.30;;
20084;SDS011;10202;48.474;9.138;2024-03-25T13:38:04;1.95;;;0.95;;
20084;SDS011;10202;48.474;9.138;2024-03-25T13:40:32;1.02;;;0.77;;
20084;SDS011;10202;48.474;9.138;2024-03-25T13:43:00;0.73;;;0.57;;
20084;SDS011;10202;48.474;9.138;2024-03-25T13:45:30;2.85;;;0.90;;
20084;SDS011;10202;48.474;9.138;2024-03-25T13:47:55;2.47;;;0.90;;
20084;SDS011;10202;48.474;9.138;2024-03-25T13:50:23;3.38;;;1.00;;
20084;SDS011;10202;48.474;9.138;2024-03-25T13:52:49;3.80;;;1.10;;
20084;SDS011;10202;48.474;9.138;2024-03-25T13:55:14;2.30;;;1.00;;
20084;SDS011;10202;48.474;9.138;2024-03-25T13:57:43;3.53;;;1.15;;
20084;SDS011;10202;48.474;9.138;2024-03-25T14:00:12;1.95;;;1.08;;
20084;SDS011;10202;48.474;9.138;2024-03-25T14:02:39;3.80;;;1.10;;
20084;SDS011;10202;48.474;9.138;2024-03-25T14:05:07;1.00;;;0.90;;
20084;SDS011;10202;48.474;9.138;2024-03-25T14:07:35;1.30;;;1.00;;
20084;SDS011;10202;48.474;9.138;2024-03-25T14:10:01;1.58;;;1.10;;
20084;SDS011;10202;48.474;9.138;2024-03-25T14:12:28;1.58;;;0.93;;
20084;SDS011;10202;48.474;9.138;2024-03-25T14:14:56;2.22;;;1.20;;
20084;SDS011;10202;48.474;9.138;2024-03-25T14:17:23;2.28;;;1.27;;
20084;SDS011;10202;48.474;9.138;2024-03-25T14:19:50;5.75;;;1.10;;
20084;SDS011;10202;48.474;9.138;2024-03-25T14:22:23;1.10;;;1.00;;
20084;SDS011;10202;48.474;9.138;2024-03-25T14:24:52;4.07;;;1.08;;
20084;SDS011;10202;48.474;9.138;2024-03-25T14:27:22;2.80;;;1.25;;
20084;SDS011;10202;48.474;9.138;2024-03-25T14:29:49;1.52;;;1.10;;
20084;SDS011;10202;48.474;9.138;2024-03-25T14:32:20;2.50;;;1.13;;
20084;SDS011;10202;48.474;9.138;2024-03-25T14:34:46;1.35;;;0.98;;
20084;SDS011;10202;48.474;9.138;2024-03-25T14:37:15;1.35;;;1.05;;
20084;SDS011;10202;48.474;9.138;2024-03-25T14:39:45;1.25;;;0.90;;
20084;SDS011;10202;48.474;9.138;2024-03-25T14:42:11;2.40;;;1.13;;
20084;SDS011;10202;48.474;9.138;2024-03-25T14:44:36;2.88;;;1.20;;
20084;SDS011;10202;48.474;9.138;2024-03-25T14:47:05;2.25;;;1.20;;
20084;SDS011;10202;48.474;9.138;2024-03-25T14:49:33;2.00;;;1.00;;
20084;SDS011;10202;48.474;9.138;2024-03-25T14:52:03;1.52;;;1.05;;
20084;SDS011;10202;48.474;9.138;2024-03-25T14:54:33;1.38;;;1.10;;
20084;SDS011;10202;48.474;9.138;2024-03-25T14:57:05;3.35;;;1.73;;